createdAt,value
2023-05-19T00:01:39.114Z,101796.75
2023-05-19T00:06:42.454Z,101800.98
2023-05-19T00:11:45.638Z,101801.61
2023-05-19T00:16:48.928Z,101801.78
2023-05-19T00:21:51.765Z,101795.02
2023-05-19T00:26:54.742Z,101796.11
2023-05-19T00:31:57.681Z,101792.16
2023-05-19T00:37:00.485Z,101793.98
2023-05-19T00:42:03.516Z,101789.32
2023-05-19T00:47:07.165Z,101792.19
2023-05-19T00:52:09.986Z,101786.23
2023-05-19T00:57:13.896Z,101781.94
2023-05-19T01:02:16.685Z,101780.79
2023-05-19T01:07:20.072Z,101785.55
2023-05-19T01:12:22.834Z,101775.56
2023-05-19T01:17:40.463Z,101779.29
2023-05-19T01:23:09.203Z,101776.22
2023-05-19T01:29:09.331Z,101776.62
2023-05-19T01:34:12.291Z,101772.69
2023-05-19T01:39:15.138Z,101769.83
2023-05-19T01:44:18.109Z,101764.35
2023-05-19T01:49:20.949Z,101762.55
2023-05-19T01:54:23.722Z,101765.91
2023-05-19T01:59:52.500Z,101761.73
2023-05-19T02:04:59.907Z,101759.73
2023-05-19T02:10:13.293Z,101752.94
2023-05-19T02:15:17.828Z,101751.31
2023-05-19T02:20:22.425Z,101749.98
2023-05-19T02:25:25.330Z,101746.52
2023-05-19T02:30:28.382Z,101744.30
2023-05-19T02:35:31.139Z,101748.01
2023-05-19T02:40:34.324Z,101752.98
2023-05-19T02:45:37.364Z,101759.23
2023-05-19T02:50:40.170Z,101759.44
2023-05-19T02:55:42.988Z,101757.32
2023-05-19T03:00:45.910Z,101756.25
2023-05-19T03:05:48.757Z,101755.91
2023-05-19T03:10:53.030Z,101756.94
2023-05-19T03:15:59.257Z,101758.07
2023-05-19T03:21:02.107Z,101761.20
2023-05-19T03:26:05.037Z,101762.02
2023-05-19T03:31:07.923Z,101761.94
2023-05-19T03:36:12.730Z,101766.24
2023-05-19T03:41:15.640Z,101761.61
2023-05-19T03:46:18.674Z,101760.49
2023-05-19T03:51:21.764Z,101758.33
2023-05-19T03:56:26.601Z,101755.98
2023-05-19T04:01:29.653Z,101762.40
2023-05-19T04:06:33.984Z,101764.27
2023-05-19T04:11:37.440Z,101765.45
2023-05-19T04:16:40.272Z,101758.34
2023-05-19T04:21:43.082Z,101757.74
2023-05-19T04:26:47.359Z,101756.96
2023-05-19T04:31:50.164Z,101759.63
2023-05-19T04:36:53.485Z,101757.41
2023-05-19T04:41:56.742Z,101758.73
2023-05-19T04:47:00.269Z,101759.26
2023-05-19T04:52:03.589Z,101757.80
2023-05-19T04:57:07.526Z,101761.21
2023-05-19T05:02:10.868Z,101762.75
2023-05-19T05:07:13.898Z,101763.38
2023-05-19T05:12:18.896Z,101764.94
2023-05-19T05:17:22.360Z,101766.34
2023-05-19T05:22:26.104Z,101761.61
2023-05-19T05:27:29.042Z,101763.80
2023-05-19T05:32:32.060Z,101761.12
2023-05-19T05:37:34.968Z,101761.02
2023-05-19T05:42:37.793Z,101756.24
2023-05-19T05:47:41.625Z,101756.35
2023-05-19T05:52:48.864Z,101760.11
2023-05-19T05:57:51.798Z,101760.56
2023-05-19T06:02:54.637Z,101758.99
2023-05-19T06:07:57.639Z,101763.35
2023-05-19T06:13:00.422Z,101763.54
2023-05-19T06:18:03.483Z,101766.53
2023-05-19T06:23:06.427Z,101768.38
2023-05-19T06:28:09.279Z,101767.37
2023-05-19T06:33:12.285Z,101769.28
2023-05-19T06:38:15.254Z,101767.61
2023-05-19T06:43:18.035Z,101766.38
2023-05-19T06:48:20.834Z,101766.27
2023-05-19T06:53:23.692Z,101772.61
2023-05-19T06:58:27.172Z,101768.19
2023-05-19T07:03:31.120Z,101767.28
2023-05-19T07:08:35.337Z,101763.64
2023-05-19T07:13:38.242Z,101764.05
2023-05-19T07:18:41.149Z,101766.02
2023-05-19T07:23:44.166Z,101762.59
2023-05-19T07:28:46.953Z,101757.77
2023-05-19T07:33:50.338Z,101759.36
2023-05-19T07:38:54.683Z,101763.62
2023-05-19T07:43:57.603Z,101763.98
2023-05-19T07:49:00.513Z,101758.27
2023-05-19T07:54:03.438Z,101759.83
2023-05-19T07:59:07.960Z,101761.31
2023-05-19T08:04:12.886Z,101760.88
2023-05-19T08:09:16.172Z,101758.34
2023-05-19T08:14:20.555Z,101753.77
2023-05-19T08:19:23.586Z,101754.25
2023-05-19T08:24:30.243Z,101754.66
2023-05-19T08:29:33.158Z,101754.21
2023-05-19T08:34:36.205Z,101756.69
2023-05-19T08:39:39.047Z,101759.52
2023-05-19T08:44:44.130Z,101760.90
2023-05-19T08:49:50.531Z,101761.57
2023-05-19T08:55:00.934Z,101764.27
2023-05-19T09:00:09.328Z,101760.80
2023-05-19T09:05:12.146Z,101762.64
2023-05-19T09:10:16.256Z,101764.40
2023-05-19T09:15:19.352Z,101763.25
2023-05-19T09:20:22.500Z,101764.33
2023-05-19T09:25:26.459Z,101765.05
2023-05-19T09:30:29.477Z,101762.91
2023-05-19T09:35:32.518Z,101757.66
2023-05-19T09:40:35.652Z,101760.73
2023-05-19T09:45:38.683Z,101765.34
2023-05-19T09:50:45.638Z,101766.41
2023-05-19T09:55:50.187Z,101761.41
2023-05-19T10:00:54.889Z,101763.73
2023-05-19T10:05:57.860Z,101760.15
2023-05-19T10:11:00.952Z,101760.37
2023-05-19T10:16:04.205Z,101761.23
2023-05-19T10:21:08.216Z,101763.86
2023-05-19T10:26:11.472Z,101757.87
2023-05-19T10:31:18.122Z,101747.02
2023-05-19T10:36:42.397Z,101743.98
2023-05-19T10:41:54.134Z,101743.30
2023-05-19T10:46:57.314Z,101740.36
2023-05-19T10:52:00.324Z,101742.80
2023-05-19T10:57:03.376Z,101741.14
2023-05-19T11:02:07.170Z,101742.61
2023-05-19T11:07:10.607Z,101737.12
2023-05-19T11:12:13.511Z,101742.03
2023-05-19T11:17:16.397Z,101741.25
2023-05-19T11:22:26.388Z,101741.01
2023-05-19T11:27:31.820Z,101739.44
2023-05-19T11:32:36.052Z,101743.23
2023-05-19T11:37:40.765Z,101746.54
2023-05-19T11:42:45.004Z,101744.59
2023-05-19T11:48:01.417Z,101738.69
2023-05-19T11:53:05.718Z,101743.09
2023-05-19T11:58:09.275Z,101738.04
2023-05-19T12:03:12.204Z,101740.89
2023-05-19T12:08:17.896Z,101740.34
2023-05-19T12:13:22.835Z,101745.90
2023-05-19T12:18:30.756Z,101743.04
2023-05-19T12:23:33.797Z,101746.70
2023-05-19T12:28:36.709Z,101744.10
2023-05-19T12:33:39.605Z,101743.97
2023-05-19T12:38:43.554Z,101741.89
2023-05-19T12:43:46.425Z,101741.29
2023-05-19T12:48:49.326Z,101743.35
2023-05-19T12:53:52.187Z,101737.35
2023-05-19T12:58:55.162Z,101735.31
2023-05-19T13:03:58.181Z,101736.45
2023-05-19T13:09:01.346Z,101731.50
2023-05-19T13:14:04.292Z,101731.50
2023-05-19T13:19:17.514Z,101731.83
2023-05-19T13:24:27.130Z,101733.60
2023-05-19T13:29:30.067Z,101732.15
2023-05-19T13:34:32.905Z,101736.17
2023-05-19T13:39:35.975Z,101735.65
2023-05-19T13:44:38.915Z,101736.41
2023-05-19T13:50:29.033Z,101733.67
2023-05-19T13:55:32.982Z,101731.80
2023-05-19T14:00:37.304Z,101730.27
2023-05-19T14:05:40.177Z,101726.14
2023-05-19T14:10:43.484Z,101730.10
2023-05-19T14:15:46.392Z,101726.94
2023-05-19T14:20:49.295Z,101733.79
2023-05-19T14:25:52.140Z,101727.50
2023-05-19T14:30:55.268Z,101730.79
2023-05-19T14:36:00.319Z,101735.84
2023-05-19T14:41:03.453Z,101733.04
2023-05-19T14:46:06.368Z,101735.39
2023-05-19T14:51:09.256Z,101732.24
2023-05-19T14:56:12.012Z,101729.17
2023-05-19T15:01:14.920Z,101732.83
2023-05-19T15:06:17.862Z,101737.90
2023-05-19T15:11:20.877Z,101743.52
2023-05-19T15:16:23.850Z,101746.55
2023-05-19T15:21:26.769Z,101749.44
2023-05-19T15:26:29.833Z,101751.08
2023-05-19T15:31:33.379Z,101751.33
2023-05-19T15:36:37.257Z,101739.98
2023-05-19T15:41:40.117Z,101741.02
2023-05-19T15:46:43.029Z,101736.33
2023-05-19T15:51:46.066Z,101734.89
2023-05-19T15:56:48.886Z,101732.09
2023-05-19T16:01:53.127Z,101729.36
2023-05-19T16:06:56.346Z,101725.34
2023-05-19T16:11:59.146Z,101725.04
2023-05-19T16:17:11.415Z,101720.21
2023-05-19T16:22:14.352Z,101719.14
2023-05-19T16:27:17.314Z,101717.95
2023-05-19T16:32:20.371Z,101718.61
2023-05-19T16:37:23.152Z,101719.64
2023-05-19T16:42:27.175Z,101721.80
2023-05-19T16:47:30.049Z,101722.37
2023-05-19T16:52:32.926Z,101722.84
2023-05-19T16:57:35.957Z,101717.08
2023-05-19T17:02:48.225Z,101717.50
2023-05-19T17:07:51.424Z,101715.64
2023-05-19T17:12:54.266Z,101716.61
2023-05-19T17:17:57.095Z,101714.31
2023-05-19T17:22:59.895Z,101713.82
2023-05-19T17:28:05.539Z,101708.98
2023-05-19T17:33:08.384Z,101709.59
2023-05-19T17:38:11.260Z,101712.42
2023-05-19T17:43:14.100Z,101711.23
2023-05-19T17:48:16.890Z,101710.60
2023-05-19T17:53:20.057Z,101713.34
2023-05-19T17:58:23.427Z,101723.38
2023-05-19T18:03:26.864Z,101721.75
2023-05-19T18:08:31.280Z,101725.30
2023-05-19T18:13:34.122Z,101723.85
2023-05-19T18:18:37.595Z,101724.63
2023-05-19T18:23:41.583Z,101719.27
2023-05-19T18:28:44.540Z,101721.58
2023-05-19T18:33:47.437Z,101726.64
2023-05-19T18:38:50.610Z,101735.27
2023-05-19T18:43:54.066Z,101743.21
2023-05-19T18:48:57.161Z,101748.75
2023-05-19T18:53:59.972Z,101752.12
2023-05-19T18:59:03.004Z,101755.34
2023-05-19T19:04:05.959Z,101755.70
2023-05-19T19:09:08.921Z,101758.46
2023-05-19T19:14:12.194Z,101763.11
2023-05-19T19:19:15.190Z,101763.83
2023-05-19T19:24:18.017Z,101768.70
2023-05-19T19:29:22.366Z,101770.55
2023-05-19T19:34:25.840Z,101770.27
2023-05-19T19:39:28.766Z,101770.16
2023-05-19T19:44:31.622Z,101770.91
2023-05-19T19:49:34.584Z,101776.63
2023-05-19T19:54:37.487Z,101777.66
2023-05-19T19:59:40.481Z,101783.42
2023-05-19T20:04:43.497Z,101782.16
2023-05-19T20:09:47.113Z,101785.98
2023-05-19T20:14:51.642Z,101783.34
2023-05-19T20:19:54.492Z,101779.71
2023-05-19T20:24:57.480Z,101779.72
2023-05-19T20:30:00.818Z,101775.60
2023-05-19T20:35:03.912Z,101774.17
2023-05-19T20:40:07.645Z,101777.66
2023-05-19T20:45:10.567Z,101783.38
2023-05-19T20:50:13.501Z,101780.83
2023-05-19T20:55:16.377Z,101785.31
2023-05-19T21:00:19.186Z,101785.52
2023-05-19T21:05:22.337Z,101788.16
2023-05-19T21:10:25.200Z,101788.78
2023-05-19T21:15:28.014Z,101794.20
2023-05-19T21:20:30.847Z,101791.39
2023-05-19T21:25:33.856Z,101792.33
2023-05-19T21:30:36.626Z,101784.44
2023-05-19T21:35:39.393Z,101786.67
2023-05-19T21:40:42.276Z,101784.29
2023-05-19T21:45:45.060Z,101785.60
2023-05-19T21:50:55.030Z,101782.81
2023-05-19T21:55:57.883Z,101782.98
2023-05-19T22:01:01.564Z,101787.86
2023-05-19T22:06:06.487Z,101785.80
2023-05-19T22:11:09.466Z,101783.75
2023-05-19T22:16:12.428Z,101784.54
2023-05-19T22:21:15.222Z,101784.94
2023-05-19T22:26:18.055Z,101780.37
2023-05-19T22:31:21.613Z,101783.11
2023-05-19T22:36:24.434Z,101783.98
2023-05-19T22:41:27.299Z,101780.77
2023-05-19T22:46:30.181Z,101781.55
2023-05-19T22:51:33.623Z,101774.56
2023-05-19T22:56:36.682Z,101778.61
2023-05-19T23:01:39.709Z,101779.95
2023-05-19T23:06:42.748Z,101782.78
2023-05-19T23:11:46.103Z,101777.44
2023-05-19T23:16:49.033Z,101779.23
2023-05-19T23:21:52.018Z,101775.63
2023-05-19T23:26:54.958Z,101772.58
2023-05-19T23:31:57.719Z,101770.48
2023-05-19T23:37:00.562Z,101769.65
2023-05-19T23:42:03.551Z,101767.40
2023-05-19T23:47:06.907Z,101770.44
2023-05-19T23:52:09.924Z,101771.16
2023-05-19T23:57:12.718Z,101770.75
